UWKD

Kazan International Airport

Kazan, Russian Federation
TAF UWKD 260500Z 2606/2706 14007G12MPS 5000 -RA BR OVC007 TX10/2612Z TN06/2703Z TEMPO 2606/2615 1000 SHRA BKN004 BKN010CB TEMPO 2615/2618 1000 SHRA BKN004 BKN010CB TEMPO 2618/2706 0700 SHRA FG BKN002 BKN010CB BECMG 2700/2702 27009G14MPS
Issued Valid From Valid To
Apr-26 @ 05:00 UTC
(51 minutes ago)
Apr-26 @ 06:00 UTC
(in 9 minutes)
Apr-27 @ 06:00 UTC
(in 24 hours)
Apr-26 @ 06:00 to Apr-27 @ 00:00
TAF UWKD 260500Z 2606/2706 14007G12MPS 5000 -RA BR OVC007 TX10/2612Z TN06/2703Z
Wind Visibility Clouds Conditions
140° at 14 knots
 Gusting to 23 knots
5,005 meters
  • Overcast at 700' AGL
  • Light Rain
  • Mist
Temporary Apr-26 @ 06:00 to Apr-26 @ 15:00
TEMPO 2606/2615 1000 SHRA BKN004 BKN010CB
Visibility Clouds Conditions
998 meters
  • Broken at 400' AGL
  • Broken at 1,000' AGL
  • Rain
Temporary Apr-26 @ 15:00 to Apr-26 @ 18:00
TEMPO 2615/2618 1000 SHRA BKN004 BKN010CB
Visibility Clouds Conditions
998 meters
  • Broken at 400' AGL
  • Broken at 1,000' AGL
  • Rain
Temporary Apr-26 @ 18:00 to Apr-27 @ 06:00
TEMPO 2618/2706 0700 SHRA FG BKN002 BKN010CB
Visibility Clouds Conditions
692 meters
  • Broken at 200' AGL
  • Broken at 1,000' AGL
  • Rain
  • Fog
Becoming Apr-27 @ 00:00 to Apr-27 @ 06:00
BECMG 2700/2702 27009G14MPS
Wind Visibility Clouds Conditions
270° at 17 knots
 Gusting to 27 knots
5,005 meters
  • Overcast at 700' AGL
  • Light Rain
  • Mist
TAF UWKD 260500Z 2606/2706 14007G12MPS 5000 -RA BR OVC007 TX10/2612Z TN06/2703Z TEMPO 2606/2615 1000 SHRA BKN004 BKN010CB TEMPO 2615/2618 1000 SHRA BKN004 BKN010CB TEMPO 2618/2706 0700 SHRA FG BKN002 BKN010CB BECMG 2700/2702 27009G14MPS
Issued Apr-26 @ 05:00 UTC
(51 minutes ago)
Valid From Apr-26 @ 06:00 UTC
(in 9 minutes)
Valid To Apr-27 @ 06:00 UTC
(in 24 hours)
Apr-26 @ 06:00 - Apr-27 @ 00:00
Wind Visibility
140° at 14 knots
 Gusting to 23 knots
5,005 meters
Clouds
  • Overcast at 700' AGL
Conditions
  • Light Rain
  • Mist
Temporary Apr-26 @ 06:00 - Apr-26 @ 15:00
Clouds
  • Broken at 400' AGL
  • Broken at 1,000' AGL
Conditions
  • Rain
Temporary Apr-26 @ 15:00 - Apr-26 @ 18:00
Clouds
  • Broken at 400' AGL
  • Broken at 1,000' AGL
Conditions
  • Rain
Temporary Apr-26 @ 18:00 - Apr-27 @ 06:00
Clouds
  • Broken at 200' AGL
  • Broken at 1,000' AGL
Conditions
  • Rain
  • Fog
Becoming Apr-27 @ 00:00 - Apr-27 @ 06:00
Wind Visibility
270° at 17 knots
 Gusting to 27 knots
5,005 meters
Clouds
  • Overcast at 700' AGL
Conditions
  • Light Rain
  • Mist